Time;durP1;ratioP1;P1;durP2;ratioP2;P2;SDS_P1;SDS_P2;PMS_P1;PMS_P2;Temp;Humidity;BMP_temperature;BMP_pressure;BME280_temperature;BME280_humidity;BME280_pressure;Samples;Min_cycle;Max_cycle;Signal;HPM_P1;HPM_P2
2023/01/21 00:00:40;;;;;;;56.40;15.20;;;;;;;-0.98;100.00;98365.84;221774;1273;22606;-75
2023/01/21 00:05:52;;;;;;;52.90;15.90;;;;;;;-0.98;100.00;98359.73;221792;1275;23921;-75
2023/01/21 00:11:03;;;;;;;48.10;15.20;;;;;;;-1.00;100.00;98361.73;221605;1276;24266;-76
2023/01/21 00:16:10;;;;;;;42.50;13.40;;;;;;;-1.00;100.00;98361.58;221745;1278;24234;-75
2023/01/21 00:21:13;;;;;;;48.40;13.60;;;;;;;-1.01;100.00;98368.50;221711;1276;22534;-75
2023/01/21 00:26:16;;;;;;;52.80;14.40;;;;;;;-1.02;100.00;98364.60;221710;1278;22617;-75
2023/01/21 00:31:19;;;;;;;43.90;13.20;;;;;;;-1.02;100.00;98360.39;221346;1278;24320;-76
2023/01/21 00:36:28;;;;;;;47.90;14.00;;;;;;;-1.01;100.00;98363.02;221785;1278;25665;-76
2023/01/21 00:41:36;;;;;;;49.60;13.70;;;;;;;-1.01;100.00;98369.80;221857;1277;22687;-75
2023/01/21 00:46:39;;;;;;;43.20;14.70;;;;;;;-1.03;100.00;98364.77;221724;1276;24258;-75
2023/01/21 00:51:41;;;;;;;51.40;13.80;;;;;;;-1.03;100.00;98367.20;221642;1276;25696;-76
2023/01/21 00:56:45;;;;;;;43.90;14.40;;;;;;;-1.03;100.00;98371.65;221589;1278;22538;-75
2023/01/21 01:01:47;;;;;;;41.60;14.20;;;;;;;-1.03;100.00;98372.63;221558;1278;23306;-75
2023/01/21 01:06:50;;;;;;;51.10;14.10;;;;;;;-1.02;100.00;98375.64;221712;1278;23914;-75
2023/01/21 01:11:53;;;;;;;50.20;15.30;;;;;;;-1.02;100.00;98376.20;221699;1273;25683;-76
2023/01/21 01:16:55;;;;;;;52.90;14.50;;;;;;;-1.02;100.00;98377.98;221601;1275;23636;-75
2023/01/21 01:21:58;;;;;;;47.00;14.20;;;;;;;-1.02;100.00;98384.64;221749;1276;22497;-75
2023/01/21 01:27:00;;;;;;;40.10;13.60;;;;;;;-1.02;100.00;98382.84;221736;1274;22700;-75
2023/01/21 01:32:08;;;;;;;42.20;14.30;;;;;;;-1.01;100.00;98388.13;221744;1278;22579;-76
2023/01/21 01:37:11;;;;;;;45.70;13.50;;;;;;;-0.98;100.00;98393.71;221685;1276;22554;-75
2023/01/21 01:42:15;;;;;;;46.90;14.00;;;;;;;-0.97;100.00;98394.06;221529;1278;23675;-75
2023/01/21 01:47:19;;;;;;;53.10;16.50;;;;;;;-0.94;100.00;98396.34;221683;1278;22765;-74
2023/01/21 01:52:22;;;;;;;56.30;16.70;;;;;;;-0.92;100.00;98399.58;221664;1272;23118;-75
2023/01/21 01:57:38;;;;;;;49.90;15.00;;;;;;;-0.90;100.00;98396.51;221620;1278;23214;-75
2023/01/21 02:03:43;;;;;;;47.60;15.20;;;;;;;-0.87;100.00;98392.60;221716;1256;24209;-75
2023/01/21 02:08:14;;;;;;;47.30;15.80;;;;;;;-0.86;100.00;98389.63;221705;1278;22541;-74
2023/01/21 02:13:16;;;;;;;41.30;13.30;;;;;;;-0.85;100.00;98392.13;221569;1278;23792;-75
2023/01/21 02:18:47;;;;;;;43.00;13.60;;;;;;;-0.84;100.00;98393.93;221634;1278;25478;-75
2023/01/21 02:23:56;;;;;;;;;;;;;;;-0.82;100.00;98388.73;221645;1275;22737;-75
2023/01/21 02:29:51;;;;;;;39.80;12.30;;;;;;;-0.80;100.00;98383.04;221646;1270;24266;-76
2023/01/21 02:35:04;;;;;;;38.30;12.60;;;;;;;-0.79;100.00;98385.52;220788;1283;24494;-76
2023/01/21 02:40:24;;;;;;;37.90;11.80;;;;;;;-0.77;100.00;98380.69;221516;1278;22531;-75
2023/01/21 02:45:38;;;;;;;33.50;11.10;;;;;;;-0.76;100.00;98384.43;221497;1273;25431;-75
2023/01/21 02:50:48;;;;;;;37.20;11.20;;;;;;;-0.76;100.00;98387.55;221637;1278;22889;-75
2023/01/21 02:55:51;;;;;;;33.30;11.50;;;;;;;-0.75;100.00;98388.58;221695;1275;22594;-76
2023/01/21 03:01:21;;;;;;;35.70;12.00;;;;;;;-0.75;100.00;98381.27;221658;1265;22661;-76
2023/01/21 03:06:40;;;;;;;32.20;9.70;;;;;;;-0.75;100.00;98380.00;221645;1275;24392;-75
2023/01/21 03:11:52;;;;;;;29.50;11.20;;;;;;;-0.76;100.00;98383.98;221752;1260;25245;-76
2023/01/21 03:17:31;;;;;;;35.30;10.50;;;;;;;-0.75;100.00;98382.52;221873;1276;25577;-76
2023/01/21 03:22:36;;;;;;;29.20;10.60;;;;;;;-0.75;100.00;98382.80;221748;1273;22852;-76
2023/01/21 03:27:42;;;;;;;32.20;11.40;;;;;;;-0.75;100.00;98382.75;221455;1278;22584;-75
2023/01/21 03:32:50;;;;;;;32.60;10.30;;;;;;;-0.74;100.00;98379.83;221681;1278;22981;-75
2023/01/21 03:37:59;;;;;;;32.80;10.10;;;;;;;-0.73;100.00;98377.15;221805;1272;22579;-76
2023/01/21 03:43:03;;;;;;;27.70;9.80;;;;;;;-0.76;100.00;98374.84;221746;1278;25206;-76
2023/01/21 03:48:15;;;;;;;25.50;9.70;;;;;;;-0.79;100.00;98377.07;221730;1276;22565;-76
2023/01/21 03:53:21;;;;;;;24.10;8.40;;;;;;;-0.82;100.00;98377.40;221656;1275;26663;-75
2023/01/21 03:58:26;;;;;;;29.30;9.30;;;;;;;-0.84;100.00;98384.87;221597;1277;22538;-75
2023/01/21 04:03:31;;;;;;;22.90;9.10;;;;;;;-0.85;100.00;98390.95;221428;1277;26088;-74
2023/01/21 04:08:34;;;;;;;23.30;9.00;;;;;;;-0.86;100.00;98396.50;221636;1270;25399;-75
2023/01/21 04:13:38;;;;;;;26.10;8.40;;;;;;;-0.87;100.00;98393.60;221712;1275;22532;-75
2023/01/21 04:18:41;;;;;;;27.10;9.00;;;;;;;-0.88;100.00;98394.52;221612;1276;25697;-76
2023/01/21 04:23:58;;;;;;;24.80;8.90;;;;;;;-0.89;100.00;98398.81;221465;1276;25402;-76
2023/01/21 04:29:00;;;;;;;22.20;8.60;;;;;;;-0.88;100.00;98402.16;221550;1275;22638;-74
2023/01/21 04:34:03;;;;;;;24.40;9.30;;;;;;;-0.88;100.00;98392.36;221512;1273;25518;-76
2023/01/21 04:39:10;;;;;;;27.00;9.50;;;;;;;-0.90;100.00;98382.55;221674;1270;23800;-76
2023/01/21 04:44:13;;;;;;;27.60;10.20;;;;;;;-0.93;100.00;98383.17;221719;1275;22540;-75
2023/01/21 04:49:15;;;;;;;23.30;9.00;;;;;;;-0.95;100.00;98382.75;221412;1266;22533;-76
2023/01/21 04:54:18;;;;;;;24.10;10.30;;;;;;;-0.96;100.00;98384.63;221661;1272;22606;-76
2023/01/21 04:59:20;;;;;;;26.60;10.20;;;;;;;-0.99;100.00;98383.16;221597;1272;25498;-76
2023/01/21 05:04:22;;;;;;;21.90;8.90;;;;;;;-1.01;100.00;98385.54;221517;1272;22760;-76
2023/01/21 05:09:25;;;;;;;20.00;9.60;;;;;;;-1.04;100.00;98380.15;221612;1275;25344;-76
2023/01/21 05:14:28;;;;;;;21.30;8.30;;;;;;;-1.08;100.00;98382.63;221586;1275;23629;-75
2023/01/21 05:19:30;;;;;;;24.80;9.90;;;;;;;-1.11;100.00;98391.60;221575;1275;22534;-75
2023/01/21 05:24:32;;;;;;;21.40;8.70;;;;;;;-1.12;100.00;98389.60;221594;1275;25399;-76
2023/01/21 05:29:34;;;;;;;23.30;9.70;;;;;;;-1.13;100.00;98392.64;221694;1276;22653;-75
2023/01/21 05:34:36;;;;;;;23.80;9.30;;;;;;;-1.13;100.00;98393.91;221570;1277;22536;-75
2023/01/21 05:39:39;;;;;;;22.30;8.30;;;;;;;-1.12;100.00;98394.17;221417;1277;22537;-74
2023/01/21 05:44:41;;;;;;;26.90;8.90;;;;;;;-1.12;100.00;98392.77;221610;1278;25236;-75
2023/01/21 05:49:44;;;;;;;22.80;9.20;;;;;;;-1.14;100.00;98395.98;221678;1278;22641;-75
2023/01/21 05:54:47;;;;;;;32.30;10.20;;;;;;;-1.13;100.00;98395.21;221694;1272;22540;-76
2023/01/21 06:00:04;;;;;;;28.30;9.90;;;;;;;-1.11;100.00;98390.59;221732;1275;22591;-75
2023/01/21 06:05:07;;;;;;;29.40;11.20;;;;;;;-1.10;100.00;98389.58;221728;1276;22544;-74
2023/01/21 06:10:09;;;;;;;26.20;11.00;;;;;;;-1.10;100.00;98382.98;221604;1273;22560;-75
2023/01/21 06:15:12;;;;;;;35.60;10.70;;;;;;;-1.11;100.00;98386.10;221548;1278;22565;-75
2023/01/21 06:20:16;;;;;;;35.40;10.90;;;;;;;-1.12;100.00;98380.58;221616;1257;22563;-75
2023/01/21 06:25:18;;;;;;;37.40;12.00;;;;;;;-1.13;100.00;98381.81;221493;1278;22560;-74
2023/01/21 06:30:22;;;;;;;27.30;10.70;;;;;;;-1.12;100.00;98381.31;221697;1274;25581;-75
2023/01/21 06:35:25;;;;;;;29.20;10.80;;;;;;;-1.11;100.00;98384.02;221689;1272;22669;-75
2023/01/21 06:40:27;;;;;;;24.60;10.40;;;;;;;-1.12;100.00;98380.95;221603;1275;24225;-74
2023/01/21 06:45:30;;;;;;;28.50;9.50;;;;;;;-1.13;100.00;98386.81;221636;1272;26385;-75
2023/01/21 06:50:32;;;;;;;28.40;9.40;;;;;;;-1.09;100.00;98395.48;221569;1276;22618;-75
2023/01/21 06:55:34;;;;;;;27.00;10.70;;;;;;;-1.04;100.00;98400.07;221647;1276;22622;-75
2023/01/21 07:00:36;;;;;;;27.10;9.40;;;;;;;-0.98;100.00;98405.27;221615;1275;24263;-74
2023/01/21 07:05:39;;;;;;;25.80;10.40;;;;;;;-0.94;100.00;98414.13;221623;1276;22518;-75
2023/01/21 07:10:41;;;;;;;27.30;10.90;;;;;;;-0.91;100.00;98418.21;221678;1278;22671;-74
2023/01/21 07:15:44;;;;;;;29.90;11.50;;;;;;;-0.89;100.00;98417.54;221638;1274;22538;-75
2023/01/21 07:20:47;;;;;;;30.40;10.50;;;;;;;-0.86;100.00;98423.23;221692;1275;24291;-75
2023/01/21 07:25:49;;;;;;;25.60;11.20;;;;;;;-0.85;100.00;98428.05;221584;1275;25754;-75
2023/01/21 07:30:52;;;;;;;30.00;10.50;;;;;;;-0.84;100.00;98432.02;221613;1278;22543;-75
2023/01/21 07:35:54;;;;;;;29.10;10.40;;;;;;;-0.85;100.00;98435.83;221739;1262;22994;-75
2023/01/21 07:40:56;;;;;;;26.60;10.30;;;;;;;-0.84;100.00;98431.20;222078;1272;26724;-77
2023/01/21 07:45:59;;;;;;;22.10;9.30;;;;;;;-0.82;100.00;98432.55;222074;1275;22469;-75
2023/01/21 07:51:02;;;;;;;26.20;9.90;;;;;;;-0.77;100.00;98434.77;222059;1273;22659;-76
2023/01/21 07:56:08;;;;;;;24.00;10.50;;;;;;;-0.71;100.00;98435.14;222109;1258;22591;-76
2023/01/21 08:01:12;;;;;;;26.30;9.70;;;;;;;-0.64;100.00;98439.11;222305;1270;25415;-77
2023/01/21 08:06:15;;;;;;;25.60;10.50;;;;;;;-0.56;100.00;98440.33;222130;1258;22699;-73
2023/01/21 08:11:18;;;;;;;26.90;10.20;;;;;;;-0.48;100.00;98444.88;222110;1258;22485;-76
2023/01/21 08:16:23;;;;;;;26.80;10.80;;;;;;;-0.43;100.00;98454.21;222103;1274;25249;-75
2023/01/21 08:21:26;;;;;;;23.60;10.00;;;;;;;-0.40;100.00;98457.16;222242;1270;22523;-75
2023/01/21 08:26:29;;;;;;;29.50;10.30;;;;;;;-0.34;100.00;98458.24;221998;1273;25432;-73
2023/01/21 08:31:38;;;;;;;25.30;10.30;;;;;;;-0.21;100.00;98456.16;221947;1275;23250;-74
2023/01/21 08:36:46;;;;;;;25.00;10.30;;;;;;;-0.09;100.00;98461.38;221857;1272;22532;-75
2023/01/21 08:41:53;;;;;;;22.40;9.80;;;;;;;0.01;100.00;98458.57;222021;1266;22589;-74
2023/01/21 08:46:55;;;;;;;18.90;8.20;;;;;;;0.09;100.00;98467.19;222115;1254;22569;-77
2023/01/21 08:51:57;;;;;;;19.80;9.20;;;;;;;0.07;100.00;98470.98;222063;1256;22722;-75
2023/01/21 08:57:03;;;;;;;25.30;9.40;;;;;;;0.12;100.00;98470.88;222045;1277;24219;-74
2023/01/21 09:02:10;;;;;;;31.90;10.60;;;;;;;0.17;100.00;98471.48;222036;1275;22576;-74
2023/01/21 09:07:16;;;;;;;25.50;10.60;;;;;;;0.24;100.00;98470.81;222253;1273;24238;-75
2023/01/21 09:12:18;;;;;;;28.30;10.80;;;;;;;0.25;100.00;98473.02;222011;1274;22529;-75
2023/01/21 09:17:25;;;;;;;24.90;9.80;;;;;;;0.28;100.00;98476.54;222152;1272;24187;-75
2023/01/21 09:22:27;;;;;;;28.80;11.20;;;;;;;0.36;100.00;98478.77;222394;1259;22581;-77
2023/01/21 09:27:30;;;;;;;21.30;9.40;;;;;;;0.42;100.00;98481.17;222152;1269;22565;-77
2023/01/21 09:32:36;;;;;;;24.50;10.90;;;;;;;0.48;100.00;98485.23;222053;1274;121872;-77
2023/01/21 09:37:38;;;;;;;23.50;10.80;;;;;;;0.51;100.00;98494.35;222993;1277;22519;-77
2023/01/21 09:42:41;;;;;;;21.10;10.10;;;;;;;0.52;100.00;98492.52;221936;1278;22582;-77
2023/01/21 09:47:48;;;;;;;22.90;9.70;;;;;;;0.56;100.00;98494.02;222349;1274;24201;-75
2023/01/21 09:52:58;;;;;;;24.00;9.60;;;;;;;0.65;100.00;98498.33;222514;1275;22547;-77
2023/01/21 09:58:06;;;;;;;20.20;10.30;;;;;;;0.69;100.00;98498.06;223005;1274;23321;-75
2023/01/21 10:03:21;;;;;;;23.30;10.00;;;;;;;0.74;100.00;98505.48;222041;1273;22546;-75
2023/01/21 10:08:33;;;;;;;24.90;10.50;;;;;;;0.80;100.00;98503.41;222000;1266;22538;-75
2023/01/21 10:13:38;;;;;;;24.30;10.10;;;;;;;0.89;100.00;98503.29;222182;1270;23737;-74
2023/01/21 10:18:47;;;;;;;23.90;10.30;;;;;;;1.00;100.00;98496.71;222615;1270;22669;-77
2023/01/21 10:24:03;;;;;;;21.50;9.60;;;;;;;1.08;100.00;98498.14;222001;1273;22551;-77
2023/01/21 10:29:05;;;;;;;21.90;10.00;;;;;;;1.22;100.00;98494.25;222103;1272;22534;-75
2023/01/21 10:34:16;;;;;;;20.40;10.00;;;;;;;1.39;100.00;98497.15;222039;1277;25357;-76
2023/01/21 10:39:29;;;;;;;21.90;9.70;;;;;;;1.59;100.00;98495.57;221883;1272;22527;-75
2023/01/21 10:44:50;;;;;;;16.20;9.70;;;;;;;1.86;100.00;98493.52;222071;1277;22529;-75
2023/01/21 10:50:24;;;;;;;;;;;;;;;1.99;100.00;98488.50;222096;1277;22511;-75
2023/01/21 10:55:59;;;;;;;16.60;8.30;;;;;;;2.15;100.00;98483.90;221936;1266;25313;-74
2023/01/21 11:01:05;;;;;;;15.90;9.20;;;;;;;2.17;100.00;98487.19;221922;1275;22594;-75
2023/01/21 11:06:12;;;;;;;16.50;8.60;;;;;;;2.06;100.00;98490.45;221862;1275;22593;-75
2023/01/21 11:11:25;;;;;;;16.60;8.70;;;;;;;1.98;100.00;98489.05;221905;1277;25523;-74
2023/01/21 11:16:44;;;;;;;15.00;8.30;;;;;;;1.94;100.00;98486.98;222110;1277;22588;-77
2023/01/21 11:22:15;;;;;;;16.40;8.20;;;;;;;1.88;100.00;98484.73;222010;1275;22713;-74
2023/01/21 11:27:39;;;;;;;;;;;;;;;1.84;100.00;98481.75;222170;1259;24452;-76
2023/01/21 11:32:41;;;;;;;16.20;8.60;;;;;;;1.83;100.00;98472.65;221970;1263;24142;-75
2023/01/21 11:37:45;;;;;;;18.70;8.60;;;;;;;1.80;100.00;98472.00;222006;1272;22532;-74
2023/01/21 11:42:53;;;;;;;17.20;8.30;;;;;;;1.75;100.00;98468.00;221995;1263;22563;-76
2023/01/21 11:47:57;;;;;;;14.60;8.00;;;;;;;1.72;100.00;98475.10;221977;1257;22543;-75
2023/01/21 11:53:05;;;;;;;14.20;7.90;;;;;;;1.68;100.00;98481.20;221817;1275;24854;-76
2023/01/21 11:58:23;;;;;;;13.20;7.80;;;;;;;1.69;100.00;98484.34;221938;1254;24257;-75
2023/01/21 12:03:34;;;;;;;14.70;8.30;;;;;;;1.72;100.00;98476.78;222082;1266;24229;-74
2023/01/21 12:08:37;;;;;;;15.20;8.40;;;;;;;1.73;100.00;98478.45;221658;1277;24229;-76
2023/01/21 12:13:53;;;;;;;16.00;8.50;;;;;;;1.66;100.00;98476.63;221818;1277;22523;-74
2023/01/21 12:19:17;;;;;;;15.30;8.90;;;;;;;1.65;100.00;98471.23;221735;1263;22536;-74
2023/01/21 12:24:46;;;;;;;17.10;9.10;;;;;;;1.66;100.00;98475.84;221678;1277;25313;-74
2023/01/21 12:30:06;;;;;;;18.30;9.20;;;;;;;1.64;100.00;98478.27;221681;1277;22579;-75
2023/01/21 12:35:30;;;;;;;15.40;9.10;;;;;;;1.67;100.00;98482.19;221643;1275;25446;-74
2023/01/21 12:40:51;;;;;;;20.00;9.20;;;;;;;1.70;100.00;98480.70;221697;1270;22582;-74
2023/01/21 12:45:59;;;;;;;18.80;9.80;;;;;;;1.76;100.00;98483.39;221702;1275;22546;-75
2023/01/21 12:51:32;;;;;;;18.00;9.10;;;;;;;1.70;100.00;98483.14;221652;1275;22533;-74
2023/01/21 12:56:42;;;;;;;16.80;8.90;;;;;;;1.64;100.00;98491.27;221767;1274;24259;-74
2023/01/21 13:01:47;;;;;;;;;;;;;;;1.60;100.00;98493.64;221758;1274;22514;-74
2023/01/21 13:06:55;;;;;;;20.50;10.60;;;;;;;1.60;100.00;98501.34;221690;1275;23485;-75
2023/01/21 13:12:05;;;;;;;19.80;9.50;;;;;;;1.60;100.00;98505.14;221690;1277;24258;-74
2023/01/21 13:17:17;;;;;;;21.50;10.90;;;;;;;1.61;100.00;98517.51;221689;1276;22550;-77
2023/01/21 13:23:01;;;;;;;28.60;11.00;;;;;;;1.58;100.00;98527.70;221611;1277;24382;-75
2023/01/21 13:28:24;;;;;;;20.50;10.40;;;;;;;1.50;100.00;98532.20;221732;1277;24079;-75
2023/01/21 13:33:43;;;;;;;24.50;12.00;;;;;;;1.46;100.00;98547.13;221754;1266;24241;-75
2023/01/21 13:39:33;;;;;;;24.20;11.50;;;;;;;1.45;100.00;98557.71;221773;1277;22768;-75
2023/01/21 13:44:44;;;;;;;21.30;10.60;;;;;;;1.44;100.00;98563.50;221736;1277;25316;-76
2023/01/21 13:50:05;;;;;;;28.00;12.10;;;;;;;1.43;100.00;98573.03;221681;1275;25366;-75
2023/01/21 13:55:24;;;;;;;28.20;12.60;;;;;;;1.38;100.00;98584.48;221657;1266;26213;-76
2023/01/21 14:00:33;;;;;;;29.70;12.50;;;;;;;1.33;100.00;98589.73;221749;1277;22542;-75
2023/01/21 14:05:44;;;;;;;26.70;12.20;;;;;;;1.27;100.00;98593.88;221752;1275;22543;-75
2023/01/21 14:11:06;;;;;;;21.80;11.60;;;;;;;1.17;100.00;98592.92;221749;1259;22529;-76
2023/01/21 14:16:33;;;;;;;24.40;11.60;;;;;;;1.11;100.00;98597.87;221643;1275;23324;-76
2023/01/21 14:21:53;;;;;;;25.60;11.30;;;;;;;1.05;100.00;98600.85;221650;1277;25530;-76
2023/01/21 14:27:18;;;;;;;23.90;11.70;;;;;;;0.96;100.00;98600.88;221751;1275;22544;-75
2023/01/21 14:32:41;;;;;;;25.00;12.40;;;;;;;0.89;100.00;98610.20;221752;1276;24208;-76
2023/01/21 14:38:19;;;;;;;26.50;11.90;;;;;;;0.84;100.00;98617.10;221828;1277;25466;-75
2023/01/21 14:43:31;;;;;;;27.90;12.60;;;;;;;0.78;100.00;98623.09;221685;1277;23653;-77
2023/01/21 14:48:34;;;;;;;24.30;11.60;;;;;;;0.71;100.00;98628.77;221745;1275;23078;-76
2023/01/21 14:53:45;;;;;;;30.10;12.50;;;;;;;0.56;100.00;98635.79;221706;1277;23596;-76
2023/01/21 14:59:12;;;;;;;35.60;13.80;;;;;;;0.43;100.00;98633.68;221839;1277;22591;-75
2023/01/21 15:04:22;;;;;;;32.30;15.20;;;;;;;0.40;100.00;98633.84;221635;1277;23800;-75
2023/01/21 15:09:50;;;;;;;35.10;13.70;;;;;;;0.38;100.00;98646.62;221865;1277;22651;-76
2023/01/21 15:14:58;;;;;;;38.10;15.70;;;;;;;0.34;100.00;98659.92;221802;1277;22530;-76
2023/01/21 15:20:42;;;;;;;40.20;16.20;;;;;;;0.30;100.00;98663.02;221700;1277;24225;-75
2023/01/21 15:26:05;;;;;;;40.10;17.40;;;;;;;0.27;100.00;98673.89;221811;1275;24135;-76
2023/01/21 15:31:10;;;;;;;50.40;21.20;;;;;;;0.24;100.00;98675.63;221736;1275;22545;-76
2023/01/21 15:36:21;;;;;;;51.90;20.60;;;;;;;0.22;100.00;98679.83;221815;1276;22533;-75
2023/01/21 15:41:23;;;;;;;64.20;25.90;;;;;;;0.20;100.00;98689.21;221920;1277;22659;-76
2023/01/21 15:47:13;;;;;;;65.70;28.00;;;;;;;0.19;100.00;98703.30;221834;1276;22589;-76
2023/01/21 15:52:22;;;;;;;56.40;23.60;;;;;;;0.17;100.00;98713.32;221695;1277;22543;-76
2023/01/21 15:57:47;;;;;;;56.60;25.50;;;;;;;0.14;100.00;98726.90;221915;1277;22537;-76
2023/01/21 16:03:01;;;;;;;50.40;20.80;;;;;;;0.11;100.00;98740.93;221609;1277;22533;-74
2023/01/21 16:08:20;;;;;;;47.40;19.40;;;;;;;0.10;100.00;98749.68;221608;1277;22546;-76
2023/01/21 16:13:32;;;;;;;32.40;15.60;;;;;;;0.05;100.00;98753.50;221877;1276;22553;-75
2023/01/21 16:18:37;;;;;;;37.30;16.10;;;;;;;0.02;100.00;98756.59;221689;1277;22652;-76
2023/01/21 16:23:41;;;;;;;55.30;22.80;;;;;;;0.02;100.00;98765.38;221738;1260;22549;-76
2023/01/21 16:28:48;;;;;;;53.50;23.70;;;;;;;0.03;100.00;98769.86;221738;1277;22589;-75
2023/01/21 16:33:52;;;;;;;45.00;18.30;;;;;;;0.01;100.00;98772.08;221478;1277;22537;-76
2023/01/21 16:39:05;;;;;;;49.20;20.50;;;;;;;0.02;100.00;98779.27;221723;1277;24398;-76
2023/01/21 16:44:14;;;;;;;;;;;;;;;0.02;100.00;98787.90;221870;1277;22776;-76
2023/01/21 16:49:18;;;;;;;45.20;20.00;;;;;;;0.00;100.00;98793.88;221599;1277;22555;-75
2023/01/21 16:54:31;;;;;;;55.20;22.30;;;;;;;-0.03;100.00;98794.32;221727;1276;22572;-75
2023/01/21 16:59:37;;;;;;;54.00;20.50;;;;;;;-0.03;100.00;98795.70;221557;1277;22537;-75
2023/01/21 17:04:40;;;;;;;56.40;22.10;;;;;;;-0.04;100.00;98798.98;221954;1276;22553;-76
2023/01/21 17:09:42;;;;;;;63.90;25.30;;;;;;;-0.05;100.00;98797.27;221657;1276;26255;-75
2023/01/21 17:14:45;;;;;;;73.90;25.70;;;;;;;-0.04;100.00;98801.74;221713;1277;23202;-76
2023/01/21 17:19:49;;;;;;;78.20;26.70;;;;;;;-0.02;100.00;98809.86;221678;1277;24273;-75
2023/01/21 17:25:00;;;;;;;62.30;25.30;;;;;;;-0.05;100.00;98811.59;221609;1277;22718;-75
2023/01/21 17:30:28;;;;;;;65.80;25.40;;;;;;;-0.10;100.00;98811.11;221752;1277;22552;-75
2023/01/21 17:35:46;;;;;;;;;;;;;;;;;;;;;
2023/01/21 17:41:07;;;;;;;70.50;26.00;;;;;;;-0.24;100.00;98832.39;221663;1277;22651;-76
2023/01/21 17:46:12;;;;;;;73.60;27.30;;;;;;;-0.30;100.00;98847.75;221825;1276;25362;-76
2023/01/21 17:51:19;;;;;;;74.40;27.50;;;;;;;-0.35;100.00;98856.05;221768;1277;22533;-76
2023/01/21 17:56:49;;;;;;;82.50;30.30;;;;;;;-0.39;100.00;98860.77;221662;1277;22615;-75
2023/01/21 18:01:57;;;;;;;81.70;32.40;;;;;;;-0.41;100.00;98867.02;221733;1278;22537;-76
2023/01/21 18:07:14;;;;;;;90.60;32.40;;;;;;;-0.42;100.00;98871.94;221699;1277;22526;-76
2023/01/21 18:12:18;;;;;;;99.40;35.50;;;;;;;-0.39;100.00;98883.05;221710;1276;22609;-76
2023/01/21 18:17:27;;;;;;;86.00;33.10;;;;;;;-0.35;100.00;98894.48;221665;1274;25596;-76
2023/01/21 18:22:30;;;;;;;96.20;34.10;;;;;;;-0.34;100.00;98902.98;221765;1276;22536;-76
2023/01/21 18:27:34;;;;;;;81.90;28.10;;;;;;;-0.32;100.00;98913.80;221902;1254;25358;-75
2023/01/21 18:32:37;;;;;;;91.20;31.30;;;;;;;-0.35;100.00;98934.30;221696;1278;22625;-76
2023/01/21 18:37:43;;;;;;;104.50;37.90;;;;;;;-0.35;100.00;98941.02;221732;1277;22602;-75
2023/01/21 18:42:51;;;;;;;120.40;40.00;;;;;;;-0.37;100.00;98940.51;221765;1276;22567;-76
2023/01/21 18:47:55;;;;;;;120.90;43.90;;;;;;;-0.37;100.00;98949.63;221949;1277;23837;-75
2023/01/21 18:52:59;;;;;;;138.90;50.20;;;;;;;-0.35;100.00;98951.67;221790;1277;23645;-76
2023/01/21 18:58:06;;;;;;;158.50;57.10;;;;;;;-0.32;100.00;98953.39;221936;1278;22540;-75
2023/01/21 19:03:14;;;;;;;168.10;62.50;;;;;;;-0.30;100.00;98958.60;221665;1273;25474;-74
2023/01/21 19:08:21;;;;;;;158.40;54.70;;;;;;;-0.29;100.00;98958.48;221669;1277;22551;-76
2023/01/21 19:13:24;;;;;;;145.80;51.90;;;;;;;-0.27;100.00;98961.09;221782;1273;22871;-75
2023/01/21 19:18:26;;;;;;;148.10;52.90;;;;;;;-0.25;100.00;98961.00;221706;1277;24255;-75
2023/01/21 19:23:29;;;;;;;139.20;51.00;;;;;;;-0.20;100.00;98974.23;221804;1276;25351;-75
2023/01/21 19:28:33;;;;;;;126.50;44.40;;;;;;;-0.17;100.00;98982.06;221609;1274;22654;-75
2023/01/21 19:33:35;;;;;;;133.30;46.40;;;;;;;-0.17;100.00;98977.52;221708;1277;25473;-76
2023/01/21 19:38:39;;;;;;;129.40;46.10;;;;;;;-0.16;100.00;98978.81;221845;1270;23054;-75
2023/01/21 19:43:45;;;;;;;172.20;59.10;;;;;;;-0.16;100.00;98976.09;221713;1276;22586;-74
2023/01/21 19:48:49;;;;;;;179.80;63.90;;;;;;;-0.18;100.00;98979.80;221678;1277;22538;-76
2023/01/21 19:53:51;;;;;;;206.30;67.60;;;;;;;-0.11;100.00;98996.88;221902;1277;22540;-75
2023/01/21 19:58:54;;;;;;;202.60;67.80;;;;;;;-0.08;100.00;99006.46;221678;1277;25023;-76
2023/01/21 20:03:59;;;;;;;209.30;73.30;;;;;;;-0.08;100.00;99012.18;221667;1277;22885;-76
2023/01/21 20:09:03;;;;;;;253.00;84.70;;;;;;;-0.09;100.00;99007.40;221783;1277;24396;-76
2023/01/21 20:14:06;;;;;;;326.60;111.10;;;;;;;-0.08;100.00;99016.60;221741;1277;22650;-76
2023/01/21 20:19:12;;;;;;;293.10;105.80;;;;;;;-0.07;100.00;99018.98;221740;1276;24718;-76
2023/01/21 20:24:19;;;;;;;335.70;121.00;;;;;;;-0.10;100.00;99029.88;221919;1277;22545;-75
2023/01/21 20:29:22;;;;;;;296.50;105.10;;;;;;;-0.10;100.00;99041.77;221464;1275;25375;-76
2023/01/21 20:34:26;;;;;;;284.20;96.60;;;;;;;-0.09;100.00;99046.15;221698;1273;24243;-76
2023/01/21 20:39:29;;;;;;;261.90;93.70;;;;;;;-0.09;100.00;99049.96;221810;1276;22545;-76
2023/01/21 20:44:32;;;;;;;219.90;78.90;;;;;;;-0.08;100.00;99056.70;221793;1277;24260;-75
2023/01/21 20:49:34;;;;;;;199.60;71.00;;;;;;;-0.09;100.00;99068.78;221704;1277;22694;-76
2023/01/21 20:54:37;;;;;;;176.80;66.40;;;;;;;-0.16;100.00;99080.69;221720;1273;22735;-75
2023/01/21 20:59:40;;;;;;;182.30;68.10;;;;;;;-0.20;100.00;99083.52;221748;1257;22708;-76
2023/01/21 21:04:43;;;;;;;174.40;61.70;;;;;;;-0.22;100.00;99087.58;221715;1270;24176;-76
2023/01/21 21:09:45;;;;;;;177.50;63.00;;;;;;;-0.25;100.00;99096.90;221681;1275;24256;-75
2023/01/21 21:14:48;;;;;;;162.00;56.30;;;;;;;-0.27;100.00;99099.10;221710;1277;22531;-76
2023/01/21 21:19:50;;;;;;;153.70;55.40;;;;;;;-0.28;100.00;99105.14;221706;1275;25425;-75
2023/01/21 21:24:54;;;;;;;155.00;54.70;;;;;;;-0.29;100.00;99113.61;221734;1272;23818;-75
2023/01/21 21:29:58;;;;;;;152.30;53.50;;;;;;;-0.36;100.00;99110.48;221688;1277;23931;-76
2023/01/21 21:35:03;;;;;;;175.40;59.90;;;;;;;-0.43;100.00;99116.55;221635;1269;142018;-75
2023/01/21 21:40:08;;;;;;;186.80;64.00;;;;;;;-0.53;100.00;99127.05;221750;1277;24240;-76
2023/01/21 21:45:10;;;;;;;165.60;59.60;;;;;;;-0.65;100.00;99131.05;221845;1277;24450;-75
2023/01/21 21:50:13;;;;;;;185.60;65.10;;;;;;;-0.78;100.00;99125.25;221730;1275;22537;-75
2023/01/21 21:55:18;;;;;;;162.30;60.30;;;;;;;-0.90;100.00;99135.55;221692;1277;25667;-75
2023/01/21 22:00:21;;;;;;;170.00;61.40;;;;;;;-1.01;100.00;99140.66;221688;1277;22572;-75
2023/01/21 22:05:23;;;;;;;183.60;66.60;;;;;;;-1.07;100.00;99143.42;221653;1272;22607;-76
2023/01/21 22:10:26;;;;;;;209.50;73.20;;;;;;;-1.10;100.00;99145.88;221649;1277;22565;-76
2023/01/21 22:15:32;;;;;;;196.30;69.60;;;;;;;-1.11;100.00;99150.98;221574;1277;24294;-76
2023/01/21 22:20:35;;;;;;;207.40;75.30;;;;;;;-1.15;100.00;99146.27;221752;1276;22525;-75
2023/01/21 22:25:37;;;;;;;209.70;74.40;;;;;;;-1.19;100.00;99147.78;221692;1270;22534;-75
2023/01/21 22:30:39;;;;;;;227.20;78.90;;;;;;;-1.26;100.00;99144.46;221722;1277;22529;-75
2023/01/21 22:35:44;;;;;;;233.60;81.00;;;;;;;-1.34;100.00;99144.02;221703;1273;25374;-75
2023/01/21 22:40:54;;;;;;;237.90;83.60;;;;;;;-1.41;100.00;99148.30;221713;1273;23262;-75
2023/01/21 22:45:58;;;;;;;247.40;86.60;;;;;;;-1.49;100.00;99154.32;221754;1273;22534;-77
2023/01/21 22:51:14;;;;;;;265.60;90.90;;;;;;;-1.57;100.00;99149.61;221760;1277;25341;-76
2023/01/21 22:56:21;;;;;;;251.90;87.40;;;;;;;-1.62;100.00;99156.43;221700;1277;22590;-76
2023/01/21 23:01:32;;;;;;;269.30;91.30;;;;;;;-1.71;100.00;99154.52;221759;1275;22748;-75
2023/01/21 23:06:35;;;;;;;238.50;82.20;;;;;;;-1.79;100.00;99161.48;221743;1276;25386;-76
2023/01/21 23:11:40;;;;;;;222.00;76.50;;;;;;;-1.93;100.00;99159.95;221769;1277;25329;-76
2023/01/21 23:16:42;;;;;;;216.90;77.30;;;;;;;-2.05;100.00;99163.50;221753;1273;22617;-75